Aviation Digital Data Service (ADDS)

Output produced by METARs form (0431 UTC 26 June 2019)
found at http://www.aviationweather.gov/metar/data/
 
Forecast for: RPLI (LAOAG INTL(PH-AR, PH)
Text: TAF RPLI 252300Z 2600/2624 17006KT 9999 FEW018 BKN290
Forecast period: 0000 UTC 26 June 2019 to 0000 UTC 27 June 2019
Forecast type: FROM: standard forecast or significant change
Winds: from the S (170 degrees) at 7 MPH (6 knots; 3.1 m/s)
Visibility: 6 or more miles 10+ km)
Ceiling: 29000 feet AGL
Clouds: few clouds at 1800 feet AGL
broken clouds at 29000 feet AGL
Weather: no significant weather forecast for this period
Text: TEMPO 2606/2612 VRB02KT 8000 -TSRA FEW017CB SCT018 BKN100
Forecast period: 0600 to 1200 UTC 26 June 2019
Forecast type: TEMPORARY: The following changes expected for less than half the time period
Winds: variable direction winds at 2 MPH (2 knots; 1.0 m/s)
Visibility: 5 miles (8 km)
Ceiling: 10000 feet AGL
Clouds: few clouds at 1700 feet AGL
scattered clouds at 1800 feet AGL
broken clouds at 10000 feet AGL
Weather: -TSRA  (light rain associated with thunderstorm(s))